createdAt,value
2019-04-28T00:01:41.077Z,11.68
2019-04-28T00:04:15.140Z,11.72
2019-04-28T00:06:48.977Z,11.82
2019-04-28T00:09:23.190Z,11.86
2019-04-28T00:11:56.863Z,12.02
2019-04-28T00:14:31.696Z,12.08
2019-04-28T00:17:07.254Z,12.21
2019-04-28T00:19:41.106Z,12.13
2019-04-28T00:22:17.037Z,12.25
2019-04-28T00:24:51.535Z,12.33
2019-04-28T00:27:28.324Z,12.51
2019-04-28T00:30:02.188Z,12.65
2019-04-28T00:32:41.767Z,12.70
2019-04-28T00:35:28.322Z,12.93
2019-04-28T00:38:09.059Z,13.10
2019-04-28T00:40:42.749Z,13.08
2019-04-28T00:43:17.109Z,12.99
2019-04-28T00:45:51.309Z,13.08
2019-04-28T00:48:25.235Z,13.33
2019-04-28T00:50:59.328Z,13.19
2019-04-28T00:53:33.444Z,13.14
2019-04-28T00:56:07.109Z,13.28
2019-04-28T00:58:41.716Z,13.46
2019-04-28T01:01:16.229Z,13.59
2019-04-28T01:03:51.876Z,13.68
2019-04-28T01:06:24.725Z,13.78
2019-04-28T01:08:58.797Z,13.81
2019-04-28T01:11:32.599Z,14.01
2019-04-28T01:14:07.919Z,14.08
2019-04-28T01:16:41.621Z,14.43
2019-04-28T01:19:15.371Z,14.39
2019-04-28T01:21:50.237Z,14.58
2019-04-28T01:24:24.226Z,14.62
2019-04-28T01:26:57.951Z,14.58
2019-04-28T01:29:31.850Z,14.76
2019-04-28T01:32:05.880Z,14.68
2019-04-28T01:34:39.994Z,14.72
2019-04-28T01:37:13.763Z,14.72
2019-04-28T01:39:49.485Z,14.79
2019-04-28T01:42:22.824Z,14.72
2019-04-28T01:44:57.637Z,14.63
2019-04-28T01:47:31.777Z,14.64
2019-04-28T01:50:05.881Z,14.80
2019-04-28T01:52:40.086Z,14.89
2019-04-28T01:55:13.956Z,15.24
2019-04-28T01:57:49.644Z,15.06
2019-04-28T02:00:25.494Z,15.27
2019-04-28T02:02:58.222Z,15.42
2019-04-28T02:05:32.849Z,15.87
2019-04-28T02:08:07.041Z,16.09
2019-04-28T02:10:40.794Z,16.40
2019-04-28T02:13:14.483Z,16.09
2019-04-28T02:15:50.071Z,16.51
2019-04-28T02:18:23.607Z,16.41
2019-04-28T02:20:59.566Z,16.56
2019-04-28T02:23:32.712Z,16.81
2019-04-28T02:26:06.536Z,16.92
2019-04-28T02:28:40.728Z,16.80
2019-04-28T02:31:14.717Z,16.82
2019-04-28T02:33:50.514Z,16.72
2019-04-28T02:36:23.016Z,16.77
2019-04-28T02:38:56.870Z,16.86
2019-04-28T02:41:33.631Z,17.03
2019-04-28T02:44:05.711Z,16.87
2019-04-28T02:46:42.210Z,16.92
2019-04-28T02:49:15.788Z,17.17
2019-04-28T02:51:50.612Z,17.46
2019-04-28T02:54:24.363Z,17.35
2019-04-28T02:57:01.056Z,17.17
2019-04-28T02:59:33.005Z,17.26
2019-04-28T03:02:06.871Z,17.59
2019-04-28T03:04:41.239Z,17.32
2019-04-28T03:07:14.887Z,17.21
2019-04-28T03:09:51.739Z,17.46
2019-04-28T03:12:23.722Z,17.26
2019-04-28T03:15:00.324Z,16.90
2019-04-28T03:17:32.872Z,17.14
2019-04-28T03:20:07.260Z,17.35
2019-04-28T03:22:41.350Z,17.68
2019-04-28T03:25:14.942Z,17.91
2019-04-28T03:27:50.948Z,17.64
2019-04-28T03:30:24.849Z,17.77
2019-04-28T03:33:05.791Z,17.82
2019-04-28T03:35:34.563Z,18.05
2019-04-28T03:38:08.102Z,17.97
2019-04-28T03:40:43.243Z,18.16
2019-04-28T03:43:17.012Z,18.26
2019-04-28T03:45:50.512Z,18.50
2019-04-28T03:48:24.655Z,18.56
2019-04-28T03:51:00.527Z,18.42
2019-04-28T03:53:33.520Z,18.70
2019-04-28T03:56:07.224Z,18.74
2019-04-28T03:58:40.991Z,18.69
2019-04-28T04:01:16.613Z,18.70
2019-04-28T04:03:51.508Z,18.88
2019-04-28T04:06:25.252Z,18.91
2019-04-28T04:09:00.312Z,19.07
2019-04-28T04:11:36.026Z,18.85
2019-04-28T04:14:11.414Z,19.05
2019-04-28T04:16:45.241Z,19.22
2019-04-28T04:19:20.351Z,19.32
2019-04-28T04:21:55.398Z,19.60
2019-04-28T04:24:30.651Z,19.81
2019-04-28T04:27:04.883Z,19.61
2019-04-28T04:29:43.309Z,19.74
2019-04-28T04:32:22.866Z,19.46
2019-04-28T04:34:50.402Z,19.50
2019-04-28T04:37:23.099Z,19.53
2019-04-28T04:39:57.585Z,19.63
2019-04-28T04:42:31.335Z,19.59
2019-04-28T04:45:06.699Z,19.49
2019-04-28T04:47:41.274Z,19.59
2019-04-28T04:50:15.481Z,19.59
2019-04-28T04:52:50.179Z,19.51
2019-04-28T04:55:24.259Z,19.81
2019-04-28T04:58:00.778Z,20.22
2019-04-28T05:00:35.298Z,20.08
2019-04-28T05:03:10.793Z,20.33
2019-04-28T05:05:46.293Z,20.16
2019-04-28T05:08:20.330Z,20.53
2019-04-28T05:10:54.396Z,20.46
2019-04-28T05:13:30.008Z,20.21
2019-04-28T05:16:03.666Z,20.59
2019-04-28T05:18:39.338Z,20.08
2019-04-28T05:21:13.243Z,20.25
2019-04-28T05:23:47.058Z,19.99
2019-04-28T05:26:21.357Z,20.04
2019-04-28T05:28:55.407Z,20.15
2019-04-28T05:31:30.498Z,20.58
2019-04-28T05:34:07.747Z,20.62
2019-04-28T05:36:42.412Z,20.83
2019-04-28T05:39:14.121Z,21.09
2019-04-28T05:41:50.488Z,20.61
2019-04-28T05:44:24.509Z,20.70
2019-04-28T05:46:59.717Z,20.83
2019-04-28T05:49:33.409Z,20.79
2019-04-28T05:52:09.614Z,20.01
2019-04-28T05:54:42.425Z,20.18
2019-04-28T05:57:16.415Z,20.05
2019-04-28T05:59:54.892Z,20.68
2019-04-28T06:02:30.543Z,20.74
2019-04-28T06:05:03.683Z,20.65
2019-04-28T06:07:38.147Z,20.53
2019-04-28T06:10:13.629Z,20.80
2019-04-28T06:12:49.484Z,20.70
2019-04-28T06:15:22.568Z,20.52
2019-04-28T06:17:57.465Z,20.28
2019-04-28T06:20:31.684Z,20.38
2019-04-28T06:23:05.936Z,20.14
2019-04-28T06:25:40.225Z,19.89
2019-04-28T06:28:14.076Z,19.96
2019-04-28T06:30:49.651Z,19.47
2019-04-28T06:33:24.058Z,19.88
2019-04-28T06:35:57.936Z,20.14
2019-04-28T06:38:32.846Z,20.14
2019-04-28T06:41:06.507Z,19.89
2019-04-28T06:43:40.867Z,20.17
2019-04-28T06:46:14.670Z,20.33
2019-04-28T06:48:48.319Z,20.38
2019-04-28T06:51:22.230Z,20.39
2019-04-28T06:54:15.440Z,20.20
2019-04-28T06:56:49.112Z,20.03
2019-04-28T06:59:22.937Z,19.98
2019-04-28T07:01:56.981Z,19.69
2019-04-28T07:04:32.335Z,19.79
2019-04-28T07:07:06.626Z,19.76
2019-04-28T07:09:40.382Z,19.60
2019-04-28T07:12:14.279Z,19.63
2019-04-28T07:14:49.722Z,19.57
2019-04-28T07:17:23.581Z,19.84
2019-04-28T07:19:58.891Z,20.10
2019-04-28T07:22:33.990Z,19.64
2019-04-28T07:25:09.880Z,19.75
2019-04-28T07:27:43.534Z,19.73
2019-04-28T07:30:19.177Z,19.74
2019-04-28T07:32:52.873Z,19.32
2019-04-28T07:35:26.561Z,19.71
2019-04-28T07:38:00.232Z,19.74
2019-04-28T07:40:33.873Z,19.66
2019-04-28T07:43:07.561Z,19.75
2019-04-28T07:45:41.356Z,19.83
2019-04-28T07:48:15.228Z,19.67
2019-04-28T07:50:48.948Z,19.53
2019-04-28T07:53:24.193Z,19.28
2019-04-28T07:55:58.003Z,19.48
2019-04-28T07:58:32.098Z,19.57
2019-04-28T08:01:09.596Z,19.70
2019-04-28T08:03:49.800Z,19.55
2019-04-28T08:06:21.545Z,19.79
2019-04-28T08:08:55.430Z,19.55
2019-04-28T08:11:31.112Z,19.55
2019-04-28T08:14:05.013Z,19.38
2019-04-28T08:16:38.849Z,18.96
2019-04-28T08:19:12.966Z,18.79
2019-04-28T08:21:46.980Z,18.93
2019-04-28T08:24:21.091Z,18.80
2019-04-28T08:26:55.010Z,18.96
2019-04-28T08:29:30.653Z,18.77
2019-04-28T08:32:04.778Z,18.73
2019-04-28T08:34:38.626Z,18.74
2019-04-28T08:37:12.421Z,18.60
2019-04-28T08:39:46.500Z,18.27
2019-04-28T08:42:20.324Z,18.79
2019-04-28T08:44:54.473Z,18.27
2019-04-28T08:47:28.518Z,18.04
2019-04-28T08:50:02.301Z,18.20
2019-04-28T08:52:36.617Z,17.93
2019-04-28T08:55:12.090Z,18.25
2019-04-28T08:57:45.629Z,18.17
2019-04-28T09:00:19.649Z,18.14
2019-04-28T09:02:53.467Z,18.16
2019-04-28T09:05:27.184Z,17.91
2019-04-28T09:08:00.805Z,17.91
2019-04-28T09:10:34.867Z,17.84
2019-04-28T09:13:08.648Z,17.97
2019-04-28T09:15:42.773Z,17.62
2019-04-28T09:18:16.577Z,17.50
2019-04-28T09:20:50.791Z,17.54
2019-04-28T09:23:25.890Z,17.54
2019-04-28T09:25:59.732Z,17.24
2019-04-28T09:28:33.590Z,17.26
2019-04-28T09:31:09.215Z,17.12
2019-04-28T09:33:45.044Z,17.23
2019-04-28T09:36:18.153Z,17.17
2019-04-28T09:38:51.782Z,16.86
2019-04-28T09:41:25.484Z,16.83
2019-04-28T09:44:00.937Z,16.85
2019-04-28T09:46:36.195Z,16.53
2019-04-28T09:49:10.455Z,16.67
2019-04-28T09:51:44.174Z,16.76
2019-04-28T09:54:17.697Z,16.48
2019-04-28T09:56:56.743Z,16.71
2019-04-28T09:59:30.262Z,16.37
2019-04-28T10:02:04.030Z,16.47
2019-04-28T10:04:41.628Z,16.70
2019-04-28T10:07:13.244Z,16.72
2019-04-28T10:09:47.086Z,16.44
2019-04-28T10:12:27.335Z,16.65
2019-04-28T10:14:58.104Z,16.56
2019-04-28T10:17:31.990Z,16.66
2019-04-28T10:20:06.932Z,16.41
2019-04-28T10:22:42.191Z,16.39
2019-04-28T10:25:17.623Z,16.39
2019-04-28T10:27:51.549Z,16.17
2019-04-28T10:30:27.419Z,16.09
2019-04-28T10:33:02.504Z,15.89
2019-04-28T10:35:36.239Z,16.02
2019-04-28T10:38:11.905Z,16.11
2019-04-28T10:40:46.052Z,16.10
2019-04-28T10:43:22.970Z,15.78
2019-04-28T10:45:56.655Z,15.64
2019-04-28T10:48:31.663Z,15.68
2019-04-28T10:51:08.520Z,15.60
2019-04-28T10:53:43.988Z,15.61
2019-04-28T10:56:19.119Z,15.53
2019-04-28T10:58:59.989Z,15.49
2019-04-28T11:01:37.794Z,15.43
2019-04-28T11:04:12.881Z,15.28
2019-04-28T11:06:47.981Z,15.16
2019-04-28T11:09:30.451Z,15.41
2019-04-28T11:11:57.679Z,15.42
2019-04-28T11:14:32.102Z,15.54
2019-04-28T11:17:08.064Z,15.44
2019-04-28T11:19:45.929Z,15.37
2019-04-28T11:22:19.578Z,15.28
2019-04-28T11:24:58.223Z,15.20
2019-04-28T11:27:33.991Z,15.26
2019-04-28T11:30:13.293Z,15.14
2019-04-28T11:32:57.137Z,15.05
2019-04-28T11:35:31.375Z,15.09
2019-04-28T11:38:05.359Z,15.02
2019-04-28T11:40:39.522Z,14.97
2019-04-28T11:43:13.073Z,14.97
2019-04-28T11:45:47.518Z,15.00
2019-04-28T11:48:21.681Z,14.97
2019-04-28T11:50:55.739Z,14.92
2019-04-28T11:53:29.492Z,14.86
2019-04-28T11:56:03.385Z,14.81
2019-04-28T11:58:43.466Z,14.85
2019-04-28T12:01:16.546Z,14.85
2019-04-28T12:03:50.822Z,14.71
2019-04-28T12:06:26.041Z,14.52
2019-04-28T12:08:59.969Z,14.52
2019-04-28T12:11:34.041Z,14.53
2019-04-28T12:14:09.087Z,14.56
2019-04-28T12:16:43.045Z,14.54
2019-04-28T12:19:16.721Z,14.38
2019-04-28T12:21:50.697Z,14.43
2019-04-28T12:24:25.236Z,14.25
2019-04-28T12:27:00.596Z,14.33
2019-04-28T12:29:36.452Z,14.47
2019-04-28T12:32:10.561Z,14.32
2019-04-28T12:34:47.557Z,14.22
2019-04-28T12:37:22.877Z,14.36
2019-04-28T12:39:56.767Z,14.29
2019-04-28T12:42:31.242Z,14.30
2019-04-28T12:45:06.127Z,14.37
2019-04-28T12:47:41.442Z,14.36
2019-04-28T12:50:17.181Z,14.15
2019-04-28T12:52:52.748Z,14.01
2019-04-28T12:55:26.595Z,13.95
2019-04-28T12:58:01.540Z,14.09
2019-04-28T13:00:36.571Z,13.88
2019-04-28T13:03:11.204Z,14.12
2019-04-28T13:05:45.856Z,14.14
2019-04-28T13:08:20.329Z,14.10
2019-04-28T13:10:56.918Z,14.11
2019-04-28T13:13:31.514Z,13.81
2019-04-28T13:16:06.563Z,13.99
2019-04-28T13:18:41.058Z,14.03
2019-04-28T13:21:17.696Z,13.92
2019-04-28T13:23:52.807Z,13.90
2019-04-28T13:26:30.838Z,13.88
2019-04-28T13:29:06.190Z,13.93
2019-04-28T13:31:41.836Z,13.92
2019-04-28T13:34:20.527Z,13.97
2019-04-28T13:36:54.934Z,13.96
2019-04-28T13:39:28.916Z,14.03
2019-04-28T13:42:05.881Z,13.96
2019-04-28T13:44:40.491Z,13.87
2019-04-28T13:47:14.785Z,13.88
2019-04-28T13:49:50.012Z,13.83
2019-04-28T13:52:25.053Z,14.01
2019-04-28T13:55:00.231Z,13.83
2019-04-28T13:57:37.290Z,14.02
2019-04-28T14:00:16.398Z,13.86
2019-04-28T14:02:51.097Z,13.73
2019-04-28T14:05:33.699Z,13.74
2019-04-28T14:08:07.769Z,13.65
2019-04-28T14:10:42.185Z,13.73
2019-04-28T14:13:17.170Z,13.74
2019-04-28T14:15:52.153Z,13.58
2019-04-28T14:18:27.636Z,13.62
2019-04-28T14:21:02.341Z,13.59
2019-04-28T14:23:37.890Z,13.70
2019-04-28T14:26:14.609Z,13.59
2019-04-28T14:28:51.609Z,13.40
2019-04-28T14:31:26.914Z,13.53
2019-04-28T14:34:03.562Z,13.58
2019-04-28T14:36:42.099Z,13.49
2019-04-28T14:39:15.926Z,13.49
2019-04-28T14:41:50.558Z,13.54
2019-04-28T14:44:25.349Z,13.62
2019-04-28T14:47:00.364Z,13.50
2019-04-28T14:49:36.684Z,13.57
2019-04-28T14:52:12.289Z,13.39
2019-04-28T14:54:46.665Z,13.44
2019-04-28T14:57:21.225Z,13.53
2019-04-28T14:59:57.983Z,13.42
2019-04-28T15:02:42.103Z,13.29
2019-04-28T15:05:08.638Z,13.35
2019-04-28T15:07:42.474Z,13.32
2019-04-28T15:10:17.316Z,13.35
2019-04-28T15:12:52.151Z,13.30
2019-04-28T15:15:26.036Z,13.15
2019-04-28T15:18:00.079Z,12.94
2019-04-28T15:20:33.997Z,13.23
2019-04-28T15:23:08.054Z,13.24
2019-04-28T15:25:42.275Z,13.04
2019-04-28T15:28:17.322Z,13.17
2019-04-28T15:30:51.391Z,13.28
2019-04-28T15:33:25.210Z,13.07
2019-04-28T15:35:59.010Z,12.98
2019-04-28T15:38:33.228Z,12.98
2019-04-28T15:41:20.546Z,13.06
2019-04-28T15:43:41.920Z,13.01
2019-04-28T15:46:16.096Z,12.85
2019-04-28T15:48:49.699Z,12.90
2019-04-28T15:51:23.530Z,12.76
2019-04-28T15:53:57.182Z,12.60
2019-04-28T15:56:31.410Z,12.80
2019-04-28T15:59:05.724Z,12.81
2019-04-28T16:01:39.437Z,12.53
2019-04-28T16:04:13.059Z,12.77
2019-04-28T16:06:48.205Z,12.76
2019-04-28T16:09:23.585Z,12.72
2019-04-28T16:11:57.376Z,12.82
2019-04-28T16:14:32.761Z,12.56
2019-04-28T16:17:08.110Z,12.70
2019-04-28T16:19:42.224Z,12.67
2019-04-28T16:22:16.873Z,12.60
2019-04-28T16:24:50.845Z,12.63
2019-04-28T16:27:24.615Z,12.47
2019-04-28T16:29:58.184Z,12.63
2019-04-28T16:32:33.905Z,12.61
2019-04-28T16:35:07.665Z,12.30
2019-04-28T16:37:41.387Z,12.32
2019-04-28T16:40:15.177Z,12.51
2019-04-28T16:42:51.545Z,12.55
2019-04-28T16:45:26.127Z,12.34
2019-04-28T16:47:59.920Z,12.35
2019-04-28T16:50:35.017Z,12.19
2019-04-28T16:53:08.892Z,12.33
2019-04-28T16:55:42.705Z,12.15
2019-04-28T16:58:18.007Z,12.03
2019-04-28T17:00:55.591Z,12.18
2019-04-28T17:03:29.838Z,12.09
2019-04-28T17:06:04.884Z,12.24
2019-04-28T17:08:39.089Z,12.22
2019-04-28T17:11:12.922Z,12.20
2019-04-28T17:13:46.516Z,12.13
2019-04-28T17:16:22.222Z,11.94
2019-04-28T17:18:56.102Z,11.88
2019-04-28T17:21:29.753Z,11.94
2019-04-28T17:24:03.726Z,11.90
2019-04-28T17:26:37.301Z,11.81
2019-04-28T17:29:12.426Z,11.89
2019-04-28T17:31:48.390Z,11.85
2019-04-28T17:34:22.139Z,11.87
2019-04-28T17:36:56.486Z,11.84
2019-04-28T17:39:30.347Z,11.82
2019-04-28T17:42:06.097Z,11.78
2019-04-28T17:44:39.849Z,11.70
2019-04-28T17:47:15.660Z,11.64
2019-04-28T17:49:49.923Z,11.64
2019-04-28T17:52:23.869Z,11.50
2019-04-28T17:54:59.056Z,11.49
2019-04-28T17:57:32.989Z,11.54
2019-04-28T18:00:11.092Z,11.51
2019-04-28T18:02:44.960Z,11.48
2019-04-28T18:05:20.135Z,11.37
2019-04-28T18:07:56.481Z,11.42
2019-04-28T18:10:29.387Z,11.41
2019-04-28T18:13:03.158Z,11.40
2019-04-28T18:15:36.905Z,11.32
2019-04-28T18:18:10.562Z,11.31
2019-04-28T18:20:44.254Z,11.19
2019-04-28T18:23:19.271Z,11.19
2019-04-28T18:25:55.441Z,11.16
2019-04-28T18:28:30.429Z,11.12
2019-04-28T18:31:04.340Z,11.03
2019-04-28T18:33:38.145Z,11.07
2019-04-28T18:36:12.088Z,11.05
2019-04-28T18:38:46.094Z,11.05
2019-04-28T18:41:19.896Z,11.06
2019-04-28T18:43:53.647Z,11.01
2019-04-28T18:46:27.316Z,11.02
2019-04-28T18:49:01.512Z,10.75
2019-04-28T18:51:35.857Z,10.87
2019-04-28T18:54:09.616Z,10.72
2019-04-28T18:56:43.158Z,10.62
2019-04-28T18:59:17.140Z,10.67
2019-04-28T19:01:51.306Z,10.78
2019-04-28T19:04:25.406Z,10.77
2019-04-28T19:07:05.273Z,10.66
2019-04-28T19:09:33.823Z,10.70
2019-04-28T19:12:07.661Z,10.67
2019-04-28T19:14:41.557Z,10.66
2019-04-28T19:17:15.758Z,10.48
2019-04-28T19:19:49.382Z,10.61
2019-04-28T19:22:23.662Z,10.59
2019-04-28T19:24:57.281Z,10.54
2019-04-28T19:27:31.382Z,10.48
2019-04-28T19:30:05.257Z,10.47
2019-04-28T19:32:38.855Z,10.34
2019-04-28T19:35:12.940Z,10.39
2019-04-28T19:37:46.716Z,10.30
2019-04-28T19:40:20.379Z,10.23
2019-04-28T19:42:54.144Z,10.32
2019-04-28T19:45:28.110Z,10.32
2019-04-28T19:48:01.788Z,10.25
2019-04-28T19:50:35.668Z,10.10
2019-04-28T19:53:09.305Z,10.27
2019-04-28T19:55:45.340Z,10.24
2019-04-28T19:58:18.903Z,10.26
2019-04-28T20:00:52.787Z,10.39
2019-04-28T20:03:26.390Z,10.04
2019-04-28T20:06:00.635Z,10.08
2019-04-28T20:08:34.405Z,10.19
2019-04-28T20:11:08.419Z,10.27
2019-04-28T20:13:42.672Z,10.21
2019-04-28T20:16:18.405Z,10.23
2019-04-28T20:18:52.346Z,10.22
2019-04-28T20:21:26.546Z,10.18
2019-04-28T20:24:02.137Z,10.11
2019-04-28T20:26:35.883Z,10.14
2019-04-28T20:29:09.621Z,10.09
2019-04-28T20:31:44.638Z,10.03
2019-04-28T20:34:19.466Z,10.17
2019-04-28T20:36:53.686Z,10.10
2019-04-28T20:39:27.552Z,10.12
2019-04-28T20:42:01.291Z,10.21
2019-04-28T20:44:35.150Z,10.25
2019-04-28T20:47:08.874Z,10.15
2019-04-28T20:49:42.915Z,10.14
2019-04-28T20:52:16.541Z,10.23
2019-04-28T20:54:49.943Z,10.10
2019-04-28T20:57:24.141Z,10.00
2019-04-28T20:59:57.967Z,10.09
2019-04-28T21:02:32.167Z,10.11
2019-04-28T21:05:06.468Z,10.17
2019-04-28T21:07:40.290Z,9.96
2019-04-28T21:10:15.278Z,10.14
2019-04-28T21:12:49.231Z,10.21
2019-04-28T21:15:22.917Z,10.11
2019-04-28T21:17:57.247Z,10.10
2019-04-28T21:20:30.890Z,10.14
2019-04-28T21:23:04.975Z,10.23
2019-04-28T21:25:38.569Z,10.33
2019-04-28T21:28:12.323Z,10.21
2019-04-28T21:30:46.587Z,10.15
2019-04-28T21:33:21.746Z,10.16
2019-04-28T21:35:55.551Z,10.26
2019-04-28T21:38:29.975Z,10.32
2019-04-28T21:41:03.692Z,10.26
2019-04-28T21:43:37.392Z,10.35
2019-04-28T21:46:11.559Z,10.38
2019-04-28T21:48:45.417Z,10.32
2019-04-28T21:51:20.021Z,10.40
2019-04-28T21:53:53.775Z,10.35
2019-04-28T21:56:27.313Z,10.48
2019-04-28T21:59:02.224Z,10.42
2019-04-28T22:01:35.986Z,10.49
2019-04-28T22:04:10.283Z,10.56
2019-04-28T22:06:44.165Z,10.50
2019-04-28T22:09:19.391Z,10.57
2019-04-28T22:11:53.227Z,10.67
2019-04-28T22:14:26.962Z,10.65
2019-04-28T22:17:00.488Z,10.64
2019-04-28T22:19:34.187Z,10.59
2019-04-28T22:22:08.186Z,10.68
2019-04-28T22:24:41.874Z,10.72
2019-04-28T22:27:17.114Z,10.83
2019-04-28T22:29:50.574Z,10.97
2019-04-28T22:32:25.703Z,11.00
2019-04-28T22:34:59.454Z,11.03
2019-04-28T22:37:33.280Z,11.11
2019-04-28T22:40:07.851Z,11.08
2019-04-28T22:42:41.521Z,11.17
2019-04-28T22:45:16.179Z,11.18
2019-04-28T22:47:49.985Z,11.26
2019-04-28T22:50:44.488Z,11.42
2019-04-28T22:53:19.558Z,11.47
2019-04-28T22:55:53.506Z,11.51
2019-04-28T22:58:27.498Z,11.71
2019-04-28T23:01:19.604Z,11.62
2019-04-28T23:03:53.282Z,11.61
2019-04-28T23:06:27.147Z,11.82
2019-04-28T23:09:01.326Z,11.99
2019-04-28T23:11:35.136Z,11.99
2019-04-28T23:14:09.036Z,12.08
2019-04-28T23:16:42.869Z,11.89
2019-04-28T23:19:16.470Z,11.89
2019-04-28T23:21:50.529Z,12.07
2019-04-28T23:24:24.707Z,12.07
2019-04-28T23:26:58.538Z,12.14
2019-04-28T23:29:32.800Z,12.27
2019-04-28T23:32:06.672Z,12.25
2019-04-28T23:34:43.510Z,12.25
2019-04-28T23:37:17.147Z,12.25
2019-04-28T23:39:50.664Z,12.34
2019-04-28T23:42:24.442Z,12.43
2019-04-28T23:44:58.060Z,12.48
2019-04-28T23:47:31.817Z,12.53
2019-04-28T23:50:06.801Z,12.50
2019-04-28T23:52:41.923Z,12.52
2019-04-28T23:55:15.857Z,12.68
2019-04-28T23:57:49.634Z,12.73
